Clovis, New Mexico
Current Conditions -  °F | °C
As of 10:15 AM on Thursday 30 Oct 2014 (Local Time) from KCVN Reporting Station
Clear Clear  
Wind Chill: 64°   Ceiling: Unl
Heat Index: 64°   Visibility: 10mi
Dew Point: 34°   Wind: 24mph
Humidity: 32%   Direction: 30°NNE
Pressure: 30.29"   Gusts: 30mph
Location:  34.41°N, 103.2°W
Report Text: KCVN 301615Z AUTO 03021G26KT 10SM CLR 18/01 A3029 RMK AO1
Loading
Personal Weather Stations






























Interactive Weather Map New forecast layout! Learn more

10-Day Weather Forecast

Advertisements
Track Severe Weather on mobile